createdAt,value
2023-04-26T00:00:28.243Z,5.46
2023-04-26T00:01:28.242Z,5.47
2023-04-26T00:02:28.387Z,5.47
2023-04-26T00:03:28.368Z,5.47
2023-04-26T00:04:28.457Z,5.48
2023-04-26T00:05:28.433Z,5.48
2023-04-26T00:06:28.169Z,5.48
2023-04-26T00:07:28.161Z,5.48
2023-04-26T00:08:28.216Z,5.48
2023-04-26T00:09:28.136Z,5.48
2023-04-26T00:10:28.158Z,5.47
2023-04-26T00:11:28.133Z,5.46
2023-04-26T00:12:28.106Z,5.45
2023-04-26T00:13:28.116Z,5.45
2023-04-26T00:14:28.132Z,5.44
2023-04-26T00:15:28.054Z,5.44
2023-04-26T00:16:28.091Z,5.43
2023-04-26T00:17:28.064Z,5.42
2023-04-26T00:18:28.033Z,5.41
2023-04-26T00:19:28.000Z,5.40
2023-04-26T00:20:27.987Z,5.40
2023-04-26T00:21:27.965Z,5.42
2023-04-26T00:22:27.961Z,5.43
2023-04-26T00:23:27.966Z,5.45
2023-04-26T00:24:27.988Z,5.46
2023-04-26T00:25:27.925Z,5.45
2023-04-26T00:26:27.918Z,5.45
2023-04-26T00:27:27.911Z,5.43
2023-04-26T00:28:27.885Z,5.41
2023-04-26T00:29:27.882Z,5.40
2023-04-26T00:30:27.871Z,5.40
2023-04-26T00:31:27.861Z,5.40
2023-04-26T00:32:27.881Z,5.39
2023-04-26T00:33:27.826Z,5.38
2023-04-26T00:34:27.802Z,5.38
2023-04-26T00:35:27.808Z,5.38
2023-04-26T00:36:27.796Z,5.38
2023-04-26T00:37:27.768Z,5.38
2023-04-26T00:38:27.797Z,5.38
2023-04-26T00:39:27.797Z,5.39
2023-04-26T00:40:27.752Z,5.40
2023-04-26T00:41:27.726Z,5.41
2023-04-26T00:42:27.704Z,5.42
2023-04-26T00:43:27.707Z,5.44
2023-04-26T00:44:27.712Z,5.46
2023-04-26T00:45:27.711Z,5.47
2023-04-26T00:46:27.681Z,5.49
2023-04-26T00:47:27.669Z,5.50
2023-04-26T00:48:27.628Z,5.51
2023-04-26T00:49:27.623Z,5.51
2023-04-26T00:50:27.595Z,5.52
2023-04-26T00:51:27.609Z,5.51
2023-04-26T00:52:27.618Z,5.50
2023-04-26T00:53:27.547Z,5.47
2023-04-26T00:54:27.590Z,5.43
2023-04-26T00:55:27.588Z,5.39
2023-04-26T00:56:27.515Z,5.36
2023-04-26T00:57:27.520Z,5.33
2023-04-26T00:58:27.490Z,5.31
2023-04-26T00:59:27.486Z,5.27
2023-04-26T01:00:27.479Z,5.23
2023-04-26T01:01:27.506Z,5.20
2023-04-26T01:02:27.634Z,5.16
2023-04-26T01:03:27.599Z,5.12
2023-04-26T01:04:27.685Z,5.07
2023-04-26T01:05:27.435Z,5.04
2023-04-26T01:06:27.394Z,5.00
2023-04-26T01:07:27.388Z,4.97
2023-04-26T01:08:27.360Z,4.95
2023-04-26T01:09:27.359Z,4.94
2023-04-26T01:10:27.398Z,4.92
2023-04-26T01:11:27.317Z,4.90
2023-04-26T01:12:27.316Z,4.88
2023-04-26T01:13:27.285Z,4.87
2023-04-26T01:14:27.304Z,4.85
2023-04-26T01:15:27.277Z,4.85
2023-04-26T01:16:27.289Z,4.84
2023-04-26T01:17:27.298Z,4.84
2023-04-26T01:18:27.223Z,4.84
2023-04-26T01:19:27.216Z,4.85
2023-04-26T01:20:27.234Z,4.85
2023-04-26T01:21:27.176Z,4.86
2023-04-26T01:22:27.168Z,4.86
2023-04-26T01:23:27.154Z,4.86
2023-04-26T01:24:27.154Z,4.87
2023-04-26T01:25:27.153Z,4.87
2023-04-26T01:26:27.116Z,4.86
2023-04-26T01:27:27.106Z,4.83
2023-04-26T01:28:27.177Z,4.79
2023-04-26T01:29:27.067Z,4.76
2023-04-26T01:30:27.080Z,4.73
2023-04-26T01:31:27.107Z,4.70
2023-04-26T01:32:27.055Z,4.67
2023-04-26T01:33:27.052Z,4.67
2023-04-26T01:34:27.039Z,4.66
2023-04-26T01:35:27.029Z,4.66
2023-04-26T01:36:27.010Z,4.66
2023-04-26T01:37:26.987Z,4.66
2023-04-26T01:38:26.950Z,4.66
2023-04-26T01:39:26.949Z,4.65
2023-04-26T01:40:26.932Z,4.65
2023-04-26T01:41:26.903Z,4.65
2023-04-26T01:42:26.906Z,4.65
2023-04-26T01:43:26.901Z,4.65
2023-04-26T01:44:26.873Z,4.64
2023-04-26T01:45:26.900Z,4.62
2023-04-26T01:46:26.855Z,4.61
2023-04-26T01:47:26.855Z,4.58
2023-04-26T01:48:26.835Z,4.56
2023-04-26T01:49:26.802Z,4.54
2023-04-26T01:50:26.826Z,4.51
2023-04-26T01:51:26.802Z,4.49
2023-04-26T01:52:26.801Z,4.48
2023-04-26T01:53:26.776Z,4.47
2023-04-26T01:54:26.742Z,4.47
2023-04-26T01:55:26.744Z,4.47
2023-04-26T01:56:26.726Z,4.46
2023-04-26T01:57:26.705Z,4.44
2023-04-26T01:58:26.685Z,4.44
2023-04-26T01:59:26.674Z,4.44
2023-04-26T02:00:26.662Z,4.46
2023-04-26T02:01:26.658Z,4.47
2023-04-26T02:02:26.679Z,4.47
2023-04-26T02:03:26.656Z,4.45
2023-04-26T02:04:26.647Z,4.43
2023-04-26T02:05:26.625Z,4.42
2023-04-26T02:06:26.597Z,4.40
2023-04-26T02:07:26.602Z,4.38
2023-04-26T02:08:26.604Z,4.36
2023-04-26T02:09:26.543Z,4.35
2023-04-26T02:10:26.560Z,4.35
2023-04-26T02:11:26.523Z,4.35
2023-04-26T02:12:26.509Z,4.35
2023-04-26T02:13:26.499Z,4.34
2023-04-26T02:14:26.483Z,4.33
2023-04-26T02:15:26.474Z,4.33
2023-04-26T02:16:26.561Z,4.31
2023-04-26T02:17:26.470Z,4.30
2023-04-26T02:18:26.424Z,4.30
2023-04-26T02:19:26.425Z,4.30
2023-04-26T02:20:26.393Z,4.30
2023-04-26T02:21:26.393Z,4.29
2023-04-26T02:22:26.397Z,4.29
2023-04-26T02:23:26.370Z,4.29
2023-04-26T02:24:26.365Z,4.29
2023-04-26T02:25:26.324Z,4.29
2023-04-26T02:26:26.329Z,4.29
2023-04-26T02:27:26.331Z,4.27
2023-04-26T02:28:26.289Z,4.25
2023-04-26T02:29:42.335Z,4.23
2023-04-26T02:30:26.267Z,4.23
2023-04-26T02:31:26.288Z,4.22
2023-04-26T02:32:26.296Z,4.22
2023-04-26T02:33:26.253Z,4.22
2023-04-26T02:34:26.210Z,4.22
2023-04-26T02:35:26.205Z,4.22
2023-04-26T02:36:26.211Z,4.22
2023-04-26T02:37:26.182Z,4.22
2023-04-26T02:38:26.194Z,4.20
2023-04-26T02:39:26.158Z,4.18
2023-04-26T02:40:26.155Z,4.15
2023-04-26T02:41:26.149Z,4.14
2023-04-26T02:42:26.123Z,4.14
2023-04-26T02:43:26.148Z,4.14
2023-04-26T02:44:26.111Z,4.14
2023-04-26T02:45:26.110Z,4.14
2023-04-26T02:46:26.156Z,4.14
2023-04-26T02:47:26.103Z,4.14
2023-04-26T02:48:26.034Z,4.14
2023-04-26T02:49:26.046Z,4.14
2023-04-26T02:50:26.006Z,4.14
2023-04-26T02:51:26.046Z,4.15
2023-04-26T02:52:25.995Z,4.15
2023-04-26T02:53:25.990Z,4.15
2023-04-26T02:54:25.986Z,4.14
2023-04-26T02:55:25.960Z,4.13
2023-04-26T02:56:25.987Z,4.12
2023-04-26T02:57:25.917Z,4.11
2023-04-26T02:58:25.914Z,4.10
2023-04-26T02:59:25.909Z,4.09
2023-04-26T03:00:25.894Z,4.09
2023-04-26T03:01:25.972Z,4.10
2023-04-26T03:02:26.158Z,4.11
2023-04-26T03:03:26.091Z,4.13
2023-04-26T03:04:25.894Z,4.14
2023-04-26T03:05:25.831Z,4.15
2023-04-26T03:06:25.826Z,4.15
2023-04-26T03:07:25.828Z,4.15
2023-04-26T03:08:25.782Z,4.15
2023-04-26T03:09:25.780Z,4.15
2023-04-26T03:10:25.758Z,4.15
2023-04-26T03:11:25.751Z,4.17
2023-04-26T03:12:25.717Z,4.18
2023-04-26T03:13:25.749Z,4.16
2023-04-26T03:14:25.702Z,4.13
2023-04-26T03:15:25.688Z,4.11
2023-04-26T03:16:25.710Z,4.10
2023-04-26T03:17:25.690Z,4.09
2023-04-26T03:18:25.662Z,4.07
2023-04-26T03:19:25.640Z,4.06
2023-04-26T03:20:25.617Z,4.05
2023-04-26T03:21:25.630Z,4.06
2023-04-26T03:22:25.591Z,4.07
2023-04-26T03:23:25.602Z,4.08
2023-04-26T03:24:25.565Z,4.09
2023-04-26T03:25:25.623Z,4.10
2023-04-26T03:26:25.553Z,4.11
2023-04-26T03:27:25.572Z,4.11
2023-04-26T03:28:25.510Z,4.11
2023-04-26T03:29:25.513Z,4.12
2023-04-26T03:30:25.481Z,4.13
2023-04-26T03:31:25.510Z,4.15
2023-04-26T03:32:25.546Z,4.17
2023-04-26T03:33:25.456Z,4.19
2023-04-26T03:34:25.470Z,4.20
2023-04-26T03:35:25.441Z,4.22
2023-04-26T03:36:25.431Z,4.23
2023-04-26T03:37:25.420Z,4.23
2023-04-26T03:38:25.373Z,4.23
2023-04-26T03:39:25.371Z,4.21
2023-04-26T03:40:25.375Z,4.19
2023-04-26T03:41:25.382Z,4.18
2023-04-26T03:42:25.361Z,4.18
2023-04-26T03:43:25.312Z,4.18
2023-04-26T03:44:25.307Z,4.18
2023-04-26T03:45:25.291Z,4.19
2023-04-26T03:46:25.300Z,4.20
2023-04-26T03:47:25.336Z,4.21
2023-04-26T03:48:25.255Z,4.22
2023-04-26T03:49:25.243Z,4.23
2023-04-26T03:50:25.227Z,4.24
2023-04-26T03:51:31.701Z,4.26
2023-04-26T03:52:25.192Z,4.27
2023-04-26T03:53:26.852Z,4.26
2023-04-26T03:54:25.183Z,4.25
2023-04-26T03:55:25.171Z,4.24
2023-04-26T03:56:25.149Z,4.24
2023-04-26T03:57:25.137Z,4.25
2023-04-26T03:58:25.120Z,4.26
2023-04-26T03:59:25.115Z,4.26
2023-04-26T04:00:25.092Z,4.27
2023-04-26T04:01:25.095Z,4.28
2023-04-26T04:02:25.161Z,4.29
2023-04-26T04:03:25.228Z,4.30
2023-04-26T04:04:25.281Z,4.30
2023-04-26T04:05:25.109Z,4.31
2023-04-26T04:06:24.999Z,4.33
2023-04-26T04:07:24.999Z,4.34
2023-04-26T04:08:24.985Z,4.35
2023-04-26T04:09:24.972Z,4.34
2023-04-26T04:10:24.987Z,4.33
2023-04-26T04:11:25.008Z,4.32
2023-04-26T04:12:24.941Z,4.31
2023-04-26T04:13:24.940Z,4.32
2023-04-26T04:14:24.964Z,4.32
2023-04-26T04:15:24.919Z,4.30
2023-04-26T04:16:25.002Z,4.29
2023-04-26T04:17:24.909Z,4.29
2023-04-26T04:18:24.876Z,4.27
2023-04-26T04:19:24.864Z,4.27
2023-04-26T04:20:24.850Z,4.27
2023-04-26T04:21:24.827Z,4.28
2023-04-26T04:22:24.807Z,4.30
2023-04-26T04:23:24.814Z,4.31
2023-04-26T04:24:24.784Z,4.33
2023-04-26T04:25:24.795Z,4.34
2023-04-26T04:26:24.754Z,4.35
2023-04-26T04:27:24.747Z,4.35
2023-04-26T04:28:24.729Z,4.35
2023-04-26T04:29:24.723Z,4.36
2023-04-26T04:30:24.721Z,4.38
2023-04-26T04:31:24.754Z,4.40
2023-04-26T04:32:24.726Z,4.41
2023-04-26T04:33:24.664Z,4.41
2023-04-26T04:34:24.668Z,4.42
2023-04-26T04:35:24.665Z,4.44
2023-04-26T04:36:24.625Z,4.44
2023-04-26T04:37:24.617Z,4.43
2023-04-26T04:38:24.606Z,4.42
2023-04-26T04:39:24.591Z,4.42
2023-04-26T04:40:24.566Z,4.42
2023-04-26T04:41:24.571Z,4.41
2023-04-26T04:42:24.555Z,4.41
2023-04-26T04:43:24.542Z,4.39
2023-04-26T04:44:24.536Z,4.37
2023-04-26T04:45:24.525Z,4.36
2023-04-26T04:46:24.527Z,4.36
2023-04-26T04:47:24.538Z,4.35
2023-04-26T04:48:24.476Z,4.35
2023-04-26T04:49:24.471Z,4.35
2023-04-26T04:50:24.504Z,4.36
2023-04-26T04:51:24.449Z,4.37
2023-04-26T04:52:24.419Z,4.38
2023-04-26T04:53:24.416Z,4.39
2023-04-26T04:54:24.406Z,4.41
2023-04-26T04:55:24.424Z,4.42
2023-04-26T04:56:24.387Z,4.43
2023-04-26T04:57:24.365Z,4.43
2023-04-26T04:58:24.334Z,4.42
2023-04-26T04:59:24.332Z,4.42
2023-04-26T05:00:24.320Z,4.41
2023-04-26T05:01:24.321Z,4.42
2023-04-26T05:02:24.412Z,4.41
2023-04-26T05:03:24.336Z,4.41
2023-04-26T05:04:24.594Z,4.40
2023-04-26T05:05:24.265Z,4.41
2023-04-26T05:06:24.266Z,4.43
2023-04-26T05:07:24.773Z,4.42
2023-04-26T05:08:24.215Z,4.42
2023-04-26T05:09:24.241Z,4.40
2023-04-26T05:10:24.192Z,4.40
2023-04-26T05:11:24.172Z,4.40
2023-04-26T05:12:24.171Z,4.41
2023-04-26T05:13:24.186Z,4.41
2023-04-26T05:14:24.148Z,4.41
2023-04-26T05:15:24.151Z,4.42
2023-04-26T05:16:24.250Z,4.43
2023-04-26T05:17:24.155Z,4.43
2023-04-26T05:18:24.126Z,4.42
2023-04-26T05:19:24.077Z,4.42
2023-04-26T05:20:24.088Z,4.41
2023-04-26T05:21:24.062Z,4.41
2023-04-26T05:22:24.051Z,4.42
2023-04-26T05:23:24.037Z,4.42
2023-04-26T05:24:24.029Z,4.42
2023-04-26T05:25:24.025Z,4.43
2023-04-26T05:26:23.983Z,4.43
2023-04-26T05:27:23.993Z,4.43
2023-04-26T05:28:23.973Z,4.44
2023-04-26T05:29:23.955Z,4.44
2023-04-26T05:30:23.933Z,4.44
2023-04-26T05:31:24.058Z,4.45
2023-04-26T05:32:23.921Z,4.45
2023-04-26T05:33:23.911Z,4.45
2023-04-26T05:34:23.923Z,4.45
2023-04-26T05:35:23.897Z,4.46
2023-04-26T05:36:23.864Z,4.46
2023-04-26T05:37:23.854Z,4.47
2023-04-26T05:38:23.847Z,4.48
2023-04-26T05:39:23.812Z,4.49
2023-04-26T05:40:23.831Z,4.48
2023-04-26T05:41:23.825Z,4.48
2023-04-26T05:42:23.785Z,4.47
2023-04-26T05:43:23.766Z,4.47
2023-04-26T05:44:23.766Z,4.47
2023-04-26T05:45:23.751Z,4.48
2023-04-26T05:46:23.759Z,4.47
2023-04-26T05:47:23.725Z,4.48
2023-04-26T05:48:23.744Z,4.48
2023-04-26T05:49:23.690Z,4.49
2023-04-26T05:50:23.676Z,4.47
2023-04-26T05:51:23.671Z,4.45
2023-04-26T05:52:23.738Z,4.44
2023-04-26T05:53:23.680Z,4.44
2023-04-26T05:54:23.620Z,4.45
2023-04-26T05:55:23.632Z,4.46
2023-04-26T05:56:23.625Z,4.48
2023-04-26T05:57:23.637Z,4.49
2023-04-26T05:58:23.582Z,4.49
2023-04-26T05:59:23.574Z,4.49
2023-04-26T06:00:23.593Z,4.49
2023-04-26T06:01:23.556Z,4.50
2023-04-26T06:02:23.604Z,4.51
2023-04-26T06:03:23.714Z,4.52
2023-04-26T06:04:23.627Z,4.53
2023-04-26T06:05:23.667Z,4.54
2023-04-26T06:06:23.484Z,4.55
2023-04-26T06:07:23.481Z,4.57
2023-04-26T06:08:23.454Z,4.58
2023-04-26T06:09:23.443Z,4.59
2023-04-26T06:10:23.442Z,4.59
2023-04-26T06:11:23.408Z,4.61
2023-04-26T06:12:23.390Z,4.62
2023-04-26T06:13:23.390Z,4.64
2023-04-26T06:14:30.336Z,4.64
2023-04-26T06:15:23.352Z,4.65
2023-04-26T06:16:23.376Z,4.65
2023-04-26T06:17:23.507Z,4.65
2023-04-26T06:18:23.316Z,4.65
2023-04-26T06:19:23.300Z,4.65
2023-04-26T06:20:23.282Z,4.65
2023-04-26T06:21:23.302Z,4.66
2023-04-26T06:22:23.284Z,4.67
2023-04-26T06:23:23.256Z,4.68
2023-04-26T06:24:23.232Z,4.68
2023-04-26T06:25:23.311Z,4.68
2023-04-26T06:26:23.224Z,4.68
2023-04-26T06:27:23.188Z,4.68
2023-04-26T06:28:23.211Z,4.68
2023-04-26T06:29:23.179Z,4.69
2023-04-26T06:30:23.165Z,4.69
2023-04-26T06:31:23.203Z,4.70
2023-04-26T06:32:23.202Z,4.70
2023-04-26T06:33:23.127Z,4.70
2023-04-26T06:34:23.142Z,4.69
2023-04-26T06:35:23.096Z,4.70
2023-04-26T06:36:23.082Z,4.70
2023-04-26T06:37:23.069Z,4.71
2023-04-26T06:38:23.067Z,4.72
2023-04-26T06:39:23.061Z,4.73
2023-04-26T06:40:23.037Z,4.74
2023-04-26T06:41:23.011Z,4.73
2023-04-26T06:42:23.028Z,4.73
2023-04-26T06:43:22.998Z,4.72
2023-04-26T06:44:22.995Z,4.70
2023-04-26T06:45:22.986Z,4.68
2023-04-26T06:46:23.111Z,4.66
2023-04-26T06:47:22.993Z,4.64
2023-04-26T06:48:22.944Z,4.64
2023-04-26T06:49:22.930Z,4.65
2023-04-26T06:50:22.924Z,4.66
2023-04-26T06:51:22.895Z,4.68
2023-04-26T06:52:22.900Z,4.70
2023-04-26T06:53:23.408Z,4.72
2023-04-26T06:54:22.875Z,4.73
2023-04-26T06:55:22.867Z,4.73
2023-04-26T06:56:22.859Z,4.73
2023-04-26T06:57:22.814Z,4.73
2023-04-26T06:58:22.810Z,4.73
2023-04-26T06:59:22.777Z,4.75
2023-04-26T07:00:22.787Z,4.76
2023-04-26T07:01:22.945Z,4.78
2023-04-26T07:02:22.884Z,4.80
2023-04-26T07:03:22.823Z,4.82
2023-04-26T07:04:22.838Z,4.84
2023-04-26T07:05:22.852Z,4.86
2023-04-26T07:06:22.904Z,4.88
2023-04-26T07:07:22.830Z,4.90
2023-04-26T07:08:22.675Z,4.92
2023-04-26T07:09:22.664Z,4.93
2023-04-26T07:10:22.686Z,4.94
2023-04-26T07:11:25.310Z,4.94
2023-04-26T07:12:22.610Z,4.94
2023-04-26T07:13:22.610Z,4.95
2023-04-26T07:14:22.639Z,4.96
2023-04-26T07:15:22.586Z,4.97
2023-04-26T07:16:22.599Z,4.99
2023-04-26T07:17:22.571Z,5.01
2023-04-26T07:18:22.536Z,5.03
2023-04-26T07:19:22.536Z,5.05
2023-04-26T07:20:22.557Z,5.07
2023-04-26T07:21:22.907Z,5.09
2023-04-26T07:22:22.490Z,5.11
2023-04-26T07:23:22.476Z,5.14
2023-04-26T07:24:22.473Z,5.16
2023-04-26T07:25:22.451Z,5.17
2023-04-26T07:26:22.438Z,5.18
2023-04-26T07:27:22.440Z,5.20
2023-04-26T07:28:22.427Z,5.22
2023-04-26T07:29:22.424Z,5.24
2023-04-26T07:30:22.451Z,5.27
2023-04-26T07:31:22.383Z,5.30
2023-04-26T07:32:22.420Z,5.33
2023-04-26T07:33:22.502Z,5.35
2023-04-26T07:34:22.354Z,5.37
2023-04-26T07:35:22.339Z,5.38
2023-04-26T07:36:24.450Z,5.39
2023-04-26T07:37:22.303Z,5.39
2023-04-26T07:38:22.289Z,5.38
2023-04-26T07:39:22.265Z,5.37
2023-04-26T07:40:22.262Z,5.36
2023-04-26T07:41:22.240Z,5.36
2023-04-26T07:42:22.247Z,5.35
2023-04-26T07:43:22.213Z,5.36
2023-04-26T07:44:22.225Z,5.36
2023-04-26T07:45:22.259Z,5.38
2023-04-26T07:46:22.292Z,5.40
2023-04-26T07:47:22.169Z,5.43
2023-04-26T07:48:22.147Z,5.45
2023-04-26T07:49:22.202Z,5.48
2023-04-26T07:50:22.134Z,5.50
2023-04-26T07:51:22.130Z,5.52
2023-04-26T07:52:22.093Z,5.53
2023-04-26T07:53:22.081Z,5.54
2023-04-26T07:54:22.084Z,5.55
2023-04-26T07:55:22.058Z,5.56
2023-04-26T07:56:22.053Z,5.56
2023-04-26T07:57:22.039Z,5.56
2023-04-26T07:58:22.019Z,5.56
2023-04-26T07:59:21.998Z,5.56
2023-04-26T08:00:22.007Z,5.58
2023-04-26T08:01:21.988Z,5.61
2023-04-26T08:02:29.654Z,5.64
2023-04-26T08:03:22.095Z,5.67
2023-04-26T08:04:22.059Z,5.69
2023-04-26T08:05:22.232Z,5.72
2023-04-26T08:06:21.948Z,5.74
2023-04-26T08:07:21.893Z,5.77
2023-04-26T08:08:21.888Z,5.78
2023-04-26T08:09:21.887Z,5.80
2023-04-26T08:10:21.879Z,5.81
2023-04-26T08:11:21.898Z,5.82
2023-04-26T08:12:21.836Z,5.83
2023-04-26T08:13:21.814Z,5.85
2023-04-26T08:14:21.867Z,5.87
2023-04-26T08:15:21.785Z,5.89
2023-04-26T08:16:21.809Z,5.92
2023-04-26T08:17:21.838Z,5.94
2023-04-26T08:18:21.744Z,5.96
2023-04-26T08:19:21.715Z,5.98
2023-04-26T08:20:21.733Z,6.00
2023-04-26T08:21:21.697Z,6.02
2023-04-26T08:22:21.701Z,6.04
2023-04-26T08:23:21.670Z,6.05
2023-04-26T08:24:21.675Z,6.06
2023-04-26T08:25:21.678Z,6.08
2023-04-26T08:26:21.650Z,6.09
2023-04-26T08:27:21.661Z,6.10
2023-04-26T08:28:21.614Z,6.12
2023-04-26T08:29:21.589Z,6.13
2023-04-26T08:30:21.587Z,6.14
2023-04-26T08:31:21.575Z,6.16
2023-04-26T08:32:21.633Z,6.17
2023-04-26T08:33:21.570Z,6.18
2023-04-26T08:34:21.555Z,6.19
2023-04-26T08:35:21.548Z,6.20
2023-04-26T08:36:21.507Z,6.20
2023-04-26T08:37:21.505Z,6.20
2023-04-26T08:38:21.474Z,6.20
2023-04-26T08:39:21.479Z,6.20
2023-04-26T08:40:21.465Z,6.20
2023-04-26T08:41:21.450Z,6.21
2023-04-26T08:42:21.449Z,6.22
2023-04-26T08:43:21.500Z,6.22
2023-04-26T08:44:21.397Z,6.23
2023-04-26T08:45:21.460Z,6.25
2023-04-26T08:46:21.421Z,6.26
2023-04-26T08:47:21.379Z,6.27
2023-04-26T08:48:21.343Z,6.27
2023-04-26T08:49:21.344Z,6.28
2023-04-26T08:50:21.391Z,6.29
2023-04-26T08:51:21.349Z,6.30
2023-04-26T08:52:21.344Z,6.31
2023-04-26T08:53:21.298Z,6.32
2023-04-26T08:54:21.268Z,6.33
2023-04-26T08:55:21.248Z,6.33
2023-04-26T08:56:21.292Z,6.34
2023-04-26T08:57:21.247Z,6.35
2023-04-26T08:58:21.220Z,6.37
2023-04-26T08:59:21.220Z,6.39
2023-04-26T09:00:21.247Z,6.42
2023-04-26T09:01:21.211Z,6.45
2023-04-26T09:02:21.239Z,6.48
2023-04-26T09:03:21.270Z,6.50
2023-04-26T09:04:21.327Z,6.53
2023-04-26T09:05:21.140Z,6.55
2023-04-26T09:06:21.123Z,6.58
2023-04-26T09:07:21.113Z,6.60
2023-04-26T09:08:21.137Z,6.62
2023-04-26T09:09:21.075Z,6.64
2023-04-26T09:10:21.454Z,6.66
2023-04-26T09:11:21.055Z,6.68
2023-04-26T09:12:21.035Z,6.70
2023-04-26T09:13:21.025Z,6.72
2023-04-26T09:14:21.034Z,6.74
2023-04-26T09:15:20.992Z,6.76
2023-04-26T09:16:21.032Z,6.78
2023-04-26T09:17:21.082Z,6.79
2023-04-26T09:18:21.007Z,6.81
2023-04-26T09:19:20.947Z,6.82
2023-04-26T09:20:20.974Z,6.82
2023-04-26T09:21:20.923Z,6.83
2023-04-26T09:22:20.905Z,6.84
2023-04-26T09:23:20.905Z,6.84
2023-04-26T09:24:20.894Z,6.85
2023-04-26T09:25:21.807Z,6.85
2023-04-26T09:26:20.867Z,6.86
2023-04-26T09:27:20.903Z,6.86
2023-04-26T09:28:20.836Z,6.86
2023-04-26T09:29:20.833Z,6.86
2023-04-26T09:30:20.824Z,6.87
2023-04-26T09:31:20.861Z,6.89
2023-04-26T09:32:20.792Z,6.90
2023-04-26T09:33:20.797Z,6.91
2023-04-26T09:34:20.765Z,6.92
2023-04-26T09:35:20.774Z,6.92
2023-04-26T09:36:20.733Z,6.94
2023-04-26T09:37:20.723Z,6.95
2023-04-26T09:38:20.744Z,6.97
2023-04-26T09:39:20.693Z,7.00
2023-04-26T09:40:20.673Z,7.01
2023-04-26T09:41:20.672Z,7.03
2023-04-26T09:42:20.662Z,7.05
2023-04-26T09:43:20.667Z,7.06
2023-04-26T09:44:20.650Z,7.07
2023-04-26T09:45:20.603Z,7.08
2023-04-26T09:46:20.641Z,7.08
2023-04-26T09:47:20.606Z,7.08
2023-04-26T09:48:20.611Z,7.09
2023-04-26T09:49:20.589Z,7.09
2023-04-26T09:50:20.556Z,7.10
2023-04-26T09:51:20.529Z,7.11
2023-04-26T09:52:28.065Z,7.12
2023-04-26T09:53:20.533Z,7.13
2023-04-26T09:54:20.516Z,7.13
2023-04-26T09:55:33.590Z,7.12
2023-04-26T09:56:20.478Z,7.11
2023-04-26T09:57:20.465Z,7.11
2023-04-26T09:58:20.452Z,7.09
2023-04-26T09:59:20.461Z,7.08
2023-04-26T10:00:20.405Z,7.08
2023-04-26T10:01:20.499Z,7.08
2023-04-26T10:02:20.439Z,7.09
2023-04-26T10:03:20.474Z,7.10
2023-04-26T10:04:20.566Z,7.11
2023-04-26T10:05:20.349Z,7.12
2023-04-26T10:06:20.356Z,7.13
2023-04-26T10:07:20.328Z,7.13
2023-04-26T10:08:20.330Z,7.13
2023-04-26T10:09:20.303Z,7.13
2023-04-26T10:10:20.294Z,7.13
2023-04-26T10:11:20.299Z,7.13
2023-04-26T10:12:20.307Z,7.12
2023-04-26T10:13:20.235Z,7.12
2023-04-26T10:14:20.254Z,7.12
2023-04-26T10:15:20.228Z,7.13
2023-04-26T10:16:20.255Z,7.12
2023-04-26T10:17:20.195Z,7.12
2023-04-26T10:18:20.186Z,7.13
2023-04-26T10:19:20.171Z,7.13
2023-04-26T10:20:20.178Z,7.13
2023-04-26T10:21:20.143Z,7.12
2023-04-26T10:22:20.164Z,7.12
2023-04-26T10:23:20.127Z,7.12
2023-04-26T10:24:20.114Z,7.12
2023-04-26T10:25:20.087Z,7.13
2023-04-26T10:26:20.084Z,7.13
2023-04-26T10:27:20.064Z,7.14
2023-04-26T10:28:20.050Z,7.14
2023-04-26T10:29:20.048Z,7.16
2023-04-26T10:30:20.037Z,7.17
2023-04-26T10:31:20.069Z,7.19
2023-04-26T10:32:20.018Z,7.21
2023-04-26T10:33:20.020Z,7.23
2023-04-26T10:34:19.992Z,7.27
2023-04-26T10:35:19.970Z,7.32
2023-04-26T10:36:19.955Z,7.36
2023-04-26T10:37:19.955Z,7.40
2023-04-26T10:38:19.926Z,7.46
2023-04-26T10:39:19.908Z,7.50
2023-04-26T10:40:19.920Z,7.54
2023-04-26T10:41:19.924Z,7.55
2023-04-26T10:42:20.642Z,7.56
2023-04-26T10:43:19.856Z,7.57
2023-04-26T10:44:19.867Z,7.58
2023-04-26T10:45:19.856Z,7.58
2023-04-26T10:46:19.842Z,7.59
2023-04-26T10:47:19.857Z,7.61
2023-04-26T10:48:19.997Z,7.62
2023-04-26T10:49:19.781Z,7.64
2023-04-26T10:50:19.772Z,7.68
2023-04-26T10:51:19.755Z,7.71
2023-04-26T10:52:19.745Z,7.75
2023-04-26T10:53:19.728Z,7.79
2023-04-26T10:54:19.713Z,7.82
2023-04-26T10:55:19.778Z,7.87
2023-04-26T10:56:19.688Z,7.93
2023-04-26T10:57:19.683Z,7.98
2023-04-26T10:58:19.747Z,8.03
2023-04-26T10:59:36.209Z,8.07
2023-04-26T11:00:19.660Z,8.10
2023-04-26T11:01:19.675Z,8.14
2023-04-26T11:02:19.643Z,8.17
2023-04-26T11:03:19.775Z,8.19
2023-04-26T11:04:19.689Z,8.22
2023-04-26T11:05:19.633Z,8.24
2023-04-26T11:06:19.562Z,8.26
2023-04-26T11:07:19.556Z,8.27
2023-04-26T11:08:19.530Z,8.30
2023-04-26T11:09:19.547Z,8.33
2023-04-26T11:10:19.546Z,8.38
2023-04-26T11:11:19.519Z,8.42
2023-04-26T11:12:19.534Z,8.44
2023-04-26T11:13:19.496Z,8.46
2023-04-26T11:14:19.453Z,8.47
2023-04-26T11:15:19.492Z,8.48
2023-04-26T11:16:19.538Z,8.49
2023-04-26T11:17:19.420Z,8.49
2023-04-26T11:18:19.434Z,8.49
2023-04-26T11:19:19.391Z,8.49
2023-04-26T11:20:19.390Z,8.49
2023-04-26T11:21:19.414Z,8.49
2023-04-26T11:22:19.353Z,8.50
2023-04-26T11:23:19.366Z,8.50
2023-04-26T11:24:19.319Z,8.51
2023-04-26T11:25:19.329Z,8.52
2023-04-26T11:26:19.940Z,8.53
2023-04-26T11:27:19.307Z,8.55
2023-04-26T11:28:19.281Z,8.57
2023-04-26T11:29:19.276Z,8.59
2023-04-26T11:30:19.254Z,8.62
2023-04-26T11:31:19.522Z,8.66
2023-04-26T11:32:19.237Z,8.69
2023-04-26T11:33:19.236Z,8.71
2023-04-26T11:34:19.211Z,8.74
2023-04-26T11:35:19.204Z,8.77
2023-04-26T11:36:19.183Z,8.79
2023-04-26T11:37:19.158Z,8.82
2023-04-26T11:38:19.149Z,8.84
2023-04-26T11:39:19.132Z,8.87
2023-04-26T11:40:19.160Z,8.90
2023-04-26T11:41:19.154Z,8.93
2023-04-26T11:42:19.102Z,8.97
2023-04-26T11:43:19.111Z,9.00
2023-04-26T11:44:19.090Z,9.02
2023-04-26T11:45:19.063Z,9.03
2023-04-26T11:46:19.056Z,9.04
2023-04-26T11:47:19.036Z,9.05
2023-04-26T11:48:19.070Z,9.05
2023-04-26T11:49:19.014Z,9.07
2023-04-26T11:50:18.986Z,9.08
2023-04-26T11:51:19.002Z,9.08
2023-04-26T11:52:18.989Z,9.08
2023-04-26T11:53:18.988Z,9.07
2023-04-26T11:54:18.948Z,9.07
2023-04-26T11:55:18.931Z,9.08
2023-04-26T11:56:18.934Z,9.10
2023-04-26T11:57:18.918Z,9.11
2023-04-26T11:58:18.911Z,9.12
2023-04-26T11:59:18.885Z,9.12
2023-04-26T12:00:18.892Z,9.12
2023-04-26T12:01:18.865Z,9.11
2023-04-26T12:02:19.004Z,9.11
2023-04-26T12:03:19.054Z,9.11
2023-04-26T12:04:18.968Z,9.11
2023-04-26T12:05:18.883Z,9.10
2023-04-26T12:06:18.819Z,9.08
2023-04-26T12:07:18.776Z,9.07
2023-04-26T12:08:18.771Z,9.06
2023-04-26T12:09:18.758Z,9.07
2023-04-26T12:10:18.729Z,9.07
2023-04-26T12:11:18.729Z,9.08
2023-04-26T12:12:18.715Z,9.09
2023-04-26T12:13:18.704Z,9.11
2023-04-26T12:14:18.699Z,9.12
2023-04-26T12:15:18.703Z,9.14
2023-04-26T12:16:26.185Z,9.17
2023-04-26T12:17:18.803Z,9.20
2023-04-26T12:18:18.678Z,9.24
2023-04-26T12:19:18.626Z,9.30
2023-04-26T12:20:18.644Z,9.37
2023-04-26T12:21:18.599Z,9.43
2023-04-26T12:22:18.593Z,9.48
2023-04-26T12:23:18.589Z,9.52
2023-04-26T12:24:18.555Z,9.57
2023-04-26T12:25:18.547Z,9.63
2023-04-26T12:26:18.536Z,9.71
2023-04-26T12:27:18.532Z,9.77
2023-04-26T12:28:18.529Z,9.83
2023-04-26T12:29:18.519Z,9.87
2023-04-26T12:30:18.475Z,9.91
2023-04-26T12:31:18.508Z,9.95
2023-04-26T12:32:20.070Z,9.98
2023-04-26T12:33:18.478Z,10.00
2023-04-26T12:34:18.430Z,10.02
2023-04-26T12:35:18.432Z,10.04
2023-04-26T12:36:18.399Z,10.06
2023-04-26T12:37:18.422Z,10.06
2023-04-26T12:38:18.373Z,10.04
2023-04-26T12:39:18.375Z,10.02
2023-04-26T12:40:18.357Z,9.98
2023-04-26T12:41:18.370Z,9.93
2023-04-26T12:42:18.337Z,9.89
2023-04-26T12:43:18.326Z,9.85
2023-04-26T12:44:20.466Z,9.82
2023-04-26T12:45:18.778Z,9.79
2023-04-26T12:46:18.339Z,9.77
2023-04-26T12:47:18.269Z,9.74
2023-04-26T12:48:18.384Z,9.71
2023-04-26T12:49:18.238Z,9.68
2023-04-26T12:50:18.862Z,9.64
2023-04-26T12:51:18.237Z,9.62
2023-04-26T12:52:18.224Z,9.61
2023-04-26T12:53:18.204Z,9.62
2023-04-26T12:54:18.173Z,9.64
2023-04-26T12:55:18.178Z,9.68
2023-04-26T12:56:18.152Z,9.72
2023-04-26T12:57:18.156Z,9.77
2023-04-26T12:58:18.146Z,9.84
2023-04-26T12:59:18.116Z,9.91
2023-04-26T13:00:18.111Z,9.98
2023-04-26T13:01:18.116Z,10.05
2023-04-26T13:02:18.153Z,10.11
2023-04-26T13:03:18.256Z,10.17
2023-04-26T13:04:18.262Z,10.22
2023-04-26T13:05:18.042Z,10.27
2023-04-26T13:06:18.068Z,10.31
2023-04-26T13:07:18.052Z,10.33
2023-04-26T13:08:18.010Z,10.35
2023-04-26T13:09:17.997Z,10.36
2023-04-26T13:10:17.982Z,10.37
2023-04-26T13:11:17.961Z,10.38
2023-04-26T13:12:17.948Z,10.39
2023-04-26T13:13:19.148Z,10.40
2023-04-26T13:14:17.926Z,10.42
2023-04-26T13:15:18.063Z,10.43
2023-04-26T13:16:17.950Z,10.43
2023-04-26T13:17:17.904Z,10.44